createdAt,value
2022-09-29T00:01:16.141Z,7.70
2022-09-29T00:03:44.361Z,7.60
2022-09-29T00:06:15.562Z,7.60
2022-09-29T00:08:43.952Z,7.60
2022-09-29T00:11:13.863Z,7.60
2022-09-29T00:13:42.377Z,7.70
2022-09-29T00:16:11.633Z,7.60
2022-09-29T00:18:41.501Z,7.60
2022-09-29T00:21:15.401Z,7.60
2022-09-29T00:23:43.937Z,7.60
2022-09-29T00:26:13.884Z,7.60
2022-09-29T00:28:46.622Z,7.60
2022-09-29T00:31:14.950Z,7.70
2022-09-29T00:33:44.616Z,7.80
2022-09-29T00:36:15.202Z,7.70
2022-09-29T00:38:44.782Z,7.70
2022-09-29T00:41:18.258Z,7.70
2022-09-29T00:43:57.090Z,7.70
2022-09-29T00:46:39.561Z,7.70
2022-09-29T00:49:16.310Z,7.70
2022-09-29T00:51:55.767Z,7.80
2022-09-29T00:54:28.866Z,7.80
2022-09-29T00:56:58.436Z,7.90
2022-09-29T00:59:59.043Z,7.80
2022-09-29T01:02:28.421Z,7.80
2022-09-29T01:04:59.589Z,7.90
2022-09-29T01:07:28.792Z,7.80
2022-09-29T01:09:58.578Z,7.80
2022-09-29T01:12:26.845Z,7.80
2022-09-29T01:14:56.080Z,7.80
2022-09-29T01:17:24.820Z,7.70
2022-09-29T01:20:05.040Z,7.60
2022-09-29T01:23:02.774Z,7.60
2022-09-29T01:25:56.088Z,7.60
2022-09-29T01:28:48.842Z,7.50
2022-09-29T01:31:28.720Z,7.40
2022-09-29T01:34:03.779Z,7.50
2022-09-29T01:36:43.739Z,7.50
2022-09-29T01:39:18.544Z,7.40
2022-09-29T01:41:52.874Z,7.30
2022-09-29T01:44:28.059Z,7.40
2022-09-29T01:47:02.538Z,7.50
2022-09-29T01:49:34.181Z,7.30
2022-09-29T01:52:07.808Z,7.40
2022-09-29T01:54:42.404Z,7.30
2022-09-29T01:57:14.881Z,7.30
2022-09-29T01:59:47.326Z,7.20
2022-09-29T02:02:21.952Z,7.40
2022-09-29T02:04:55.710Z,7.20
2022-09-29T02:07:28.643Z,7.20
2022-09-29T02:10:11.181Z,7.20
2022-09-29T02:12:41.281Z,7.20
2022-09-29T02:15:13.808Z,7.20
2022-09-29T02:17:46.707Z,7.20
2022-09-29T02:20:15.418Z,7.10
2022-09-29T02:22:44.049Z,7.10
2022-09-29T02:25:15.286Z,7.10
2022-09-29T02:27:43.690Z,7.10
2022-09-29T02:30:13.718Z,7.00
2022-09-29T02:32:43.411Z,7.00
2022-09-29T02:35:14.405Z,7.00
2022-09-29T02:38:00.570Z,7.00
2022-09-29T02:40:45.858Z,7.10
2022-09-29T02:43:39.464Z,7.00
2022-09-29T02:46:23.420Z,7.10
2022-09-29T02:49:17.220Z,7.20
2022-09-29T02:51:49.948Z,7.40
2022-09-29T02:54:38.002Z,7.30
2022-09-29T02:57:17.993Z,7.30
2022-09-29T02:59:53.380Z,7.40
2022-09-29T03:02:25.834Z,7.40
2022-09-29T03:04:55.715Z,7.40
2022-09-29T03:07:24.066Z,7.40
2022-09-29T03:09:52.308Z,7.40
2022-09-29T03:12:21.054Z,7.40
2022-09-29T03:14:52.594Z,7.40
2022-09-29T03:17:20.848Z,7.30
2022-09-29T03:19:49.137Z,7.30
2022-09-29T03:22:19.234Z,7.60
2022-09-29T03:24:47.612Z,7.20
2022-09-29T03:27:19.946Z,7.30
2022-09-29T03:29:48.370Z,7.20
2022-09-29T03:32:16.650Z,7.20
2022-09-29T03:34:44.848Z,7.20
2022-09-29T03:37:13.310Z,7.20
2022-09-29T03:39:51.788Z,7.20
2022-09-29T03:42:22.813Z,7.20
2022-09-29T03:44:51.057Z,7.20
2022-09-29T03:47:19.394Z,7.20
2022-09-29T03:49:47.731Z,7.20
2022-09-29T03:52:16.316Z,7.10
2022-09-29T03:54:46.092Z,7.50
2022-09-29T03:57:14.305Z,7.10
2022-09-29T03:59:45.591Z,7.10
2022-09-29T04:02:18.413Z,7.10
2022-09-29T04:04:46.864Z,7.00
2022-09-29T04:07:15.194Z,6.90
2022-09-29T04:09:48.104Z,6.90
2022-09-29T04:12:16.790Z,6.90
2022-09-29T04:14:45.043Z,6.90
2022-09-29T04:17:13.290Z,6.90
2022-09-29T04:19:41.575Z,6.80
2022-09-29T04:22:09.920Z,6.80
2022-09-29T04:24:38.762Z,6.90
2022-09-29T04:27:08.365Z,6.80
2022-09-29T04:29:36.633Z,6.80
2022-09-29T04:32:06.021Z,6.80
2022-09-29T04:34:34.788Z,6.80
2022-09-29T04:37:03.488Z,6.80
2022-09-29T04:39:34.199Z,6.90
2022-09-29T04:42:02.427Z,7.10
2022-09-29T04:44:43.662Z,6.90
2022-09-29T04:47:12.037Z,6.80
2022-09-29T04:49:42.005Z,7.10
2022-09-29T04:52:41.281Z,7.00
2022-09-29T04:55:12.405Z,7.00
2022-09-29T04:57:41.270Z,7.10
2022-09-29T05:00:18.946Z,7.10
2022-09-29T05:02:49.809Z,7.10
2022-09-29T05:05:20.843Z,7.10
2022-09-29T05:07:49.707Z,7.10
2022-09-29T05:10:24.555Z,7.20
2022-09-29T05:12:53.563Z,7.10
2022-09-29T05:15:26.182Z,7.20
2022-09-29T05:17:54.603Z,7.10
2022-09-29T05:20:22.932Z,7.10
2022-09-29T05:22:51.840Z,7.40
2022-09-29T05:25:20.111Z,7.10
2022-09-29T05:27:49.112Z,7.00
2022-09-29T05:30:18.082Z,7.10
2022-09-29T05:32:48.257Z,7.20
2022-09-29T05:39:04.689Z,7.30
2022-09-29T05:42:31.467Z,7.30
2022-09-29T05:45:42.461Z,7.40
2022-09-29T05:48:56.094Z,7.40
2022-09-29T05:52:08.044Z,7.40
2022-09-29T05:54:37.689Z,7.50
2022-09-29T06:01:19.107Z,7.60
2022-09-29T06:03:48.471Z,7.50
2022-09-29T06:06:54.820Z,7.50
2022-09-29T06:12:43.271Z,7.60
2022-09-29T06:19:54.121Z,7.60
2022-09-29T06:23:00.766Z,7.70
2022-09-29T06:25:38.840Z,7.80
2022-09-29T06:28:49.282Z,7.90
2022-09-29T06:31:56.944Z,8.10
2022-09-29T06:35:16.856Z,8.20
2022-09-29T06:42:12.863Z,8.20
2022-09-29T06:45:36.872Z,8.20
2022-09-29T06:51:45.413Z,8.30
2022-09-29T06:55:01.672Z,8.30
2022-09-29T06:57:42.197Z,8.40
2022-09-29T07:04:12.028Z,8.40
2022-09-29T07:06:49.075Z,8.40
2022-09-29T07:09:21.155Z,8.50
2022-09-29T07:12:20.377Z,8.60
2022-09-29T07:14:50.102Z,8.60
2022-09-29T07:23:50.556Z,8.70
2022-09-29T07:26:19.524Z,8.90
2022-09-29T07:28:52.140Z,8.90
2022-09-29T07:31:23.266Z,9.10
2022-09-29T07:33:52.999Z,9.10
2022-09-29T07:36:22.362Z,9.00
2022-09-29T07:38:52.483Z,8.90
2022-09-29T07:41:25.366Z,9.00
2022-09-29T07:43:53.614Z,9.20
2022-09-29T07:46:23.352Z,9.10
2022-09-29T07:48:51.566Z,9.20
2022-09-29T07:51:21.251Z,9.20
2022-09-29T07:53:49.514Z,9.20
2022-09-29T07:56:19.613Z,9.10
2022-09-29T07:58:49.582Z,9.00
2022-09-29T08:01:20.121Z,8.80
2022-09-29T08:03:54.570Z,8.90
2022-09-29T08:06:23.588Z,8.90
2022-09-29T08:09:02.332Z,8.90
2022-09-29T08:11:33.246Z,8.80
2022-09-29T08:14:02.571Z,9.00
2022-09-29T08:16:31.215Z,9.00
2022-09-29T08:19:01.492Z,9.10
2022-09-29T08:21:30.228Z,8.90
2022-09-29T08:23:58.741Z,9.10
2022-09-29T08:26:40.796Z,9.10
2022-09-29T08:29:15.739Z,9.10
2022-09-29T08:31:44.994Z,9.10
2022-09-29T08:34:15.696Z,9.10
2022-09-29T08:36:44.582Z,9.10
2022-09-29T08:39:13.377Z,9.10
2022-09-29T08:41:51.788Z,9.00
2022-09-29T08:44:37.789Z,9.10
2022-09-29T08:47:15.416Z,9.10
2022-09-29T08:49:49.059Z,9.10
2022-09-29T08:52:21.602Z,9.10
2022-09-29T08:54:54.539Z,9.10
2022-09-29T08:57:22.794Z,9.00
2022-09-29T08:59:55.689Z,9.20
2022-09-29T09:02:57.083Z,9.10
2022-09-29T09:05:52.594Z,9.10
2022-09-29T09:08:37.382Z,9.20
2022-09-29T09:11:16.894Z,9.20
2022-09-29T09:13:56.815Z,9.30
2022-09-29T09:16:33.760Z,9.30
2022-09-29T09:19:28.544Z,9.40
2022-09-29T09:22:06.026Z,9.30
2022-09-29T09:24:43.247Z,9.30
2022-09-29T09:27:18.442Z,9.40
2022-09-29T09:29:49.150Z,9.40
2022-09-29T09:32:22.004Z,9.40
2022-09-29T09:34:59.588Z,9.50
2022-09-29T09:37:34.477Z,9.40
2022-09-29T09:40:12.814Z,9.40
2022-09-29T09:42:46.243Z,9.40
2022-09-29T09:45:21.545Z,9.30
2022-09-29T09:47:55.387Z,9.40
2022-09-29T09:50:26.443Z,9.50
2022-09-29T09:52:59.791Z,9.50
2022-09-29T09:55:30.298Z,9.50
2022-09-29T09:58:37.151Z,9.60
2022-09-29T10:01:07.239Z,9.50
2022-09-29T10:03:37.569Z,9.50
2022-09-29T10:06:08.757Z,9.60
2022-09-29T10:08:42.245Z,9.50
2022-09-29T10:11:22.919Z,9.50
2022-09-29T10:13:58.236Z,9.50
2022-09-29T10:16:32.948Z,9.50
2022-09-29T10:19:01.285Z,9.50
2022-09-29T10:21:40.585Z,9.60
2022-09-29T10:24:24.139Z,9.60
2022-09-29T10:26:53.809Z,9.60
2022-09-29T10:29:29.541Z,9.60
2022-09-29T10:32:03.766Z,9.60
2022-09-29T10:34:33.617Z,9.60
2022-09-29T10:37:04.019Z,9.50
2022-09-29T10:39:39.071Z,9.60
2022-09-29T10:42:36.191Z,9.60
2022-09-29T10:45:14.045Z,9.60
2022-09-29T10:47:43.243Z,9.70
2022-09-29T10:50:17.453Z,9.70
2022-09-29T10:52:49.231Z,9.80
2022-09-29T10:55:22.055Z,9.90
2022-09-29T10:57:50.850Z,9.90
2022-09-29T11:00:34.442Z,10.00
2022-09-29T11:03:08.620Z,10.10
2022-09-29T11:05:38.049Z,10.00
2022-09-29T11:08:13.256Z,10.00
2022-09-29T11:10:43.586Z,10.00
2022-09-29T11:13:44.311Z,10.00
2022-09-29T11:16:17.549Z,10.10
2022-09-29T11:18:49.270Z,10.30
2022-09-29T11:21:50.171Z,10.40
2022-09-29T11:24:27.351Z,10.60
2022-09-29T11:27:06.304Z,10.90
2022-09-29T11:29:45.514Z,11.20
2022-09-29T11:32:29.883Z,11.40
2022-09-29T11:35:14.574Z,11.50
2022-09-29T11:37:58.931Z,11.70
2022-09-29T11:40:38.983Z,11.60
2022-09-29T11:43:27.526Z,11.50
2022-09-29T11:46:04.301Z,11.50
2022-09-29T11:49:00.373Z,11.70
2022-09-29T11:51:40.050Z,11.80
2022-09-29T11:54:29.365Z,11.90
2022-09-29T11:57:06.163Z,11.90
2022-09-29T11:59:57.461Z,11.80
2022-09-29T12:02:53.082Z,11.70
2022-09-29T12:05:28.316Z,11.50
2022-09-29T12:08:06.808Z,11.50
2022-09-29T12:10:49.688Z,11.40
2022-09-29T12:13:29.781Z,11.30
2022-09-29T12:16:04.158Z,11.10
2022-09-29T12:18:40.324Z,11.10
2022-09-29T12:21:14.090Z,10.90
2022-09-29T12:23:47.874Z,10.90
2022-09-29T12:26:20.471Z,10.80
2022-09-29T12:28:58.559Z,10.80
2022-09-29T12:31:32.821Z,10.70
2022-09-29T12:34:04.332Z,10.60
2022-09-29T12:36:46.376Z,10.50
2022-09-29T12:39:43.465Z,10.70
2022-09-29T12:42:25.429Z,10.90
2022-09-29T12:44:58.773Z,11.20
2022-09-29T12:47:46.865Z,11.30
2022-09-29T12:50:20.923Z,11.50
2022-09-29T12:52:56.241Z,11.40
2022-09-29T12:55:35.644Z,11.40
2022-09-29T12:58:10.104Z,11.50
2022-09-29T13:00:46.775Z,11.50
2022-09-29T13:04:02.761Z,11.50
2022-09-29T13:06:52.159Z,11.50
2022-09-29T13:09:43.408Z,11.40
2022-09-29T13:12:52.958Z,11.50
2022-09-29T13:15:49.860Z,11.50
2022-09-29T13:18:49.040Z,11.70
2022-09-29T13:21:59.535Z,11.70
2022-09-29T13:24:48.830Z,11.60
2022-09-29T13:27:34.140Z,11.50
2022-09-29T13:30:15.056Z,11.40
2022-09-29T13:32:46.788Z,11.40
2022-09-29T13:35:18.460Z,11.40
2022-09-29T13:37:50.790Z,11.40
2022-09-29T13:40:25.344Z,11.50
2022-09-29T13:42:56.019Z,11.60
2022-09-29T13:45:44.988Z,11.60
2022-09-29T13:48:48.299Z,11.50
2022-09-29T13:51:53.212Z,11.50
2022-09-29T13:54:24.647Z,11.40
2022-09-29T13:57:02.421Z,11.30
2022-09-29T13:59:31.563Z,11.20
2022-09-29T14:02:00.820Z,11.00
2022-09-29T14:04:46.243Z,11.00
2022-09-29T14:07:16.208Z,11.00
2022-09-29T14:09:48.956Z,10.90
2022-09-29T14:12:28.897Z,10.80
2022-09-29T14:15:00.846Z,10.70
2022-09-29T14:17:34.591Z,10.70
2022-09-29T14:20:09.854Z,10.60
2022-09-29T14:23:02.162Z,10.60
2022-09-29T14:25:55.674Z,10.50
2022-09-29T14:28:42.147Z,10.50
2022-09-29T14:31:24.610Z,10.40
2022-09-29T14:33:54.454Z,10.40
2022-09-29T14:36:26.882Z,10.30
2022-09-29T14:39:24.593Z,10.30
2022-09-29T14:41:49.032Z,10.30
2022-09-29T14:44:23.857Z,10.30
2022-09-29T14:47:28.077Z,10.20
2022-09-29T14:50:41.877Z,10.20
2022-09-29T14:53:22.946Z,10.20
2022-09-29T14:56:03.911Z,10.20
2022-09-29T14:58:58.723Z,10.10
2022-09-29T15:01:30.372Z,10.00
2022-09-29T15:04:07.124Z,9.90
2022-09-29T15:06:35.481Z,9.80
2022-09-29T15:09:16.965Z,9.80
2022-09-29T15:11:46.531Z,9.70
2022-09-29T15:14:25.354Z,9.60
2022-09-29T15:17:08.350Z,9.60
2022-09-29T15:19:55.877Z,9.50
2022-09-29T15:22:46.140Z,9.40
2022-09-29T15:25:26.627Z,9.40
2022-09-29T15:27:56.101Z,9.40
2022-09-29T15:30:25.651Z,9.30
2022-09-29T15:33:05.297Z,9.20
2022-09-29T15:35:35.913Z,9.10
2022-09-29T15:38:34.610Z,9.10
2022-09-29T15:41:06.846Z,9.00
2022-09-29T15:43:43.071Z,9.00
2022-09-29T15:46:21.540Z,8.90
2022-09-29T15:49:15.866Z,8.80
2022-09-29T15:51:47.270Z,8.70
2022-09-29T15:54:16.282Z,8.70
2022-09-29T15:57:02.044Z,8.70
2022-09-29T15:59:52.719Z,8.50
2022-09-29T16:02:31.805Z,8.40
2022-09-29T16:05:05.438Z,8.40
2022-09-29T16:07:38.484Z,8.30
2022-09-29T16:10:14.985Z,8.30
2022-09-29T16:12:50.730Z,8.20
2022-09-29T16:15:26.184Z,8.10
2022-09-29T16:17:54.905Z,8.10
2022-09-29T16:20:30.197Z,8.00
2022-09-29T16:23:06.800Z,7.90
2022-09-29T16:25:35.368Z,7.90
2022-09-29T16:28:07.522Z,7.80
2022-09-29T16:30:39.830Z,7.70
2022-09-29T16:33:15.849Z,7.70
2022-09-29T16:35:59.824Z,7.60
2022-09-29T16:38:35.721Z,7.30
2022-09-29T16:41:16.310Z,7.50
2022-09-29T16:43:45.482Z,7.40
2022-09-29T16:46:19.546Z,7.30
2022-09-29T16:48:50.626Z,7.30
2022-09-29T16:51:40.122Z,7.30
2022-09-29T16:54:16.761Z,7.50
2022-09-29T16:56:45.585Z,7.20
2022-09-29T16:59:16.502Z,7.20
2022-09-29T17:01:46.353Z,7.10
2022-09-29T17:04:15.311Z,7.10
2022-09-29T17:06:49.473Z,7.00
2022-09-29T17:09:21.957Z,7.10
2022-09-29T17:11:50.513Z,6.90
2022-09-29T17:14:21.633Z,6.90
2022-09-29T17:16:51.733Z,6.80
2022-09-29T17:19:22.438Z,6.80
2022-09-29T17:22:17.431Z,6.80
2022-09-29T17:24:46.118Z,6.70
2022-09-29T17:30:18.807Z,6.30
2022-09-29T17:32:48.026Z,6.50
2022-09-29T17:35:17.444Z,6.80
2022-09-29T17:37:48.580Z,6.40
2022-09-29T17:40:24.082Z,6.40
2022-09-29T17:42:52.788Z,6.60
2022-09-29T17:45:22.354Z,6.40
2022-09-29T17:47:50.676Z,6.50
2022-09-29T17:50:36.945Z,6.50
2022-09-29T17:53:21.488Z,6.30
2022-09-29T17:55:51.921Z,6.30
2022-09-29T17:58:21.239Z,6.50
2022-09-29T18:00:51.643Z,6.10
2022-09-29T18:03:21.993Z,6.10
2022-09-29T18:05:56.399Z,6.00
2022-09-29T18:08:29.626Z,6.00
2022-09-29T18:11:00.698Z,6.00
2022-09-29T18:13:31.424Z,6.00
2022-09-29T18:16:00.901Z,6.10
2022-09-29T18:18:29.563Z,5.80
2022-09-29T18:20:57.964Z,5.70
2022-09-29T18:23:27.965Z,5.90
2022-09-29T18:25:56.810Z,5.70
2022-09-29T18:28:25.637Z,6.20
2022-09-29T18:31:01.439Z,5.90
2022-09-29T18:33:30.469Z,5.60
2022-09-29T18:36:02.025Z,5.70
2022-09-29T18:38:50.671Z,5.60
2022-09-29T18:41:23.227Z,5.60
2022-09-29T18:43:55.073Z,5.60
2022-09-29T18:46:26.099Z,5.60
2022-09-29T18:48:54.699Z,6.20
2022-09-29T18:51:23.085Z,5.70
2022-09-29T18:54:21.690Z,5.90
2022-09-29T18:56:54.662Z,5.50
2022-09-29T18:59:23.335Z,5.80
2022-09-29T19:01:51.853Z,5.60
2022-09-29T19:04:22.453Z,5.40
2022-09-29T19:06:51.324Z,5.40
2022-09-29T19:09:20.092Z,5.50
2022-09-29T19:11:50.455Z,5.30
2022-09-29T19:14:18.911Z,5.40
2022-09-29T19:16:48.578Z,5.30
2022-09-29T19:19:17.810Z,5.20
2022-09-29T19:21:46.292Z,5.20
2022-09-29T19:24:16.441Z,5.20
2022-09-29T19:26:44.919Z,5.30
2022-09-29T19:29:16.443Z,5.20
2022-09-29T19:31:45.294Z,5.20
2022-09-29T19:34:13.787Z,5.10
2022-09-29T19:36:42.514Z,5.20
2022-09-29T19:39:12.970Z,5.30
2022-09-29T19:41:41.804Z,5.10
2022-09-29T19:44:10.741Z,5.10
2022-09-29T19:46:40.564Z,5.10
2022-09-29T19:49:09.350Z,5.10
2022-09-29T19:51:54.060Z,5.10
2022-09-29T19:54:25.238Z,5.30
2022-09-29T19:56:57.627Z,5.00
2022-09-29T19:59:29.209Z,5.00
2022-09-29T20:02:00.750Z,4.90
2022-09-29T20:04:31.322Z,5.00
2022-09-29T20:07:00.384Z,4.90
2022-09-29T20:09:30.049Z,4.90
2022-09-29T20:12:01.787Z,4.80
2022-09-29T20:14:38.144Z,4.90
2022-09-29T20:17:23.036Z,4.80
2022-09-29T20:20:08.877Z,4.80
2022-09-29T20:22:37.795Z,4.80
2022-09-29T20:25:10.386Z,4.90
2022-09-29T20:27:39.967Z,4.80
2022-09-29T20:30:10.293Z,4.70
2022-09-29T20:32:40.254Z,4.70
2022-09-29T20:35:09.512Z,4.80
2022-09-29T20:37:41.846Z,4.20
2022-09-29T20:40:12.509Z,4.70
2022-09-29T20:42:42.118Z,4.70
2022-09-29T20:45:11.648Z,5.00
2022-09-29T20:47:41.857Z,4.70
2022-09-29T20:50:10.618Z,4.70
2022-09-29T20:52:39.120Z,5.10
2022-09-29T20:55:08.470Z,5.20
2022-09-29T20:57:42.787Z,4.70
2022-09-29T21:00:14.640Z,4.80
2022-09-29T21:03:01.366Z,4.70
2022-09-29T21:05:29.957Z,4.70
2022-09-29T21:07:58.386Z,4.70
2022-09-29T21:10:27.995Z,4.60
2022-09-29T21:12:56.686Z,4.60
2022-09-29T21:15:25.162Z,4.70
2022-09-29T21:17:53.653Z,4.60
2022-09-29T21:20:23.543Z,4.60
2022-09-29T21:22:52.569Z,4.60
2022-09-29T21:25:21.235Z,4.70
2022-09-29T21:27:52.335Z,4.80
2022-09-29T21:30:20.867Z,4.50
2022-09-29T21:32:49.610Z,4.70
2022-09-29T21:35:18.461Z,4.60
2022-09-29T21:38:04.154Z,4.40
2022-09-29T21:40:34.449Z,4.40
2022-09-29T21:43:02.877Z,4.30
2022-09-29T21:45:32.216Z,4.50
2022-09-29T21:48:10.837Z,4.40
2022-09-29T21:51:02.733Z,4.50
2022-09-29T21:53:33.164Z,4.40
2022-09-29T21:56:02.893Z,4.40
2022-09-29T21:58:31.600Z,4.30
2022-09-29T22:01:00.299Z,4.30
2022-09-29T22:03:32.676Z,4.30
2022-09-29T22:06:02.111Z,4.30
2022-09-29T22:08:33.296Z,4.20
2022-09-29T22:11:01.756Z,4.10
2022-09-29T22:13:30.431Z,4.20
2022-09-29T22:16:04.785Z,4.10
2022-09-29T22:18:41.545Z,4.10
2022-09-29T22:21:13.033Z,4.00
2022-09-29T22:24:11.419Z,4.20
2022-09-29T22:26:42.265Z,4.00
2022-09-29T22:29:10.806Z,4.00
2022-09-29T22:31:40.763Z,4.10
2022-09-29T22:34:11.262Z,4.00
2022-09-29T22:36:40.194Z,3.90
2022-09-29T22:39:08.895Z,4.00
2022-09-29T22:41:39.892Z,3.90
2022-09-29T22:44:38.245Z,3.90
2022-09-29T22:47:08.131Z,3.90
2022-09-29T22:49:42.141Z,3.90
2022-09-29T22:52:10.653Z,3.90
2022-09-29T22:54:39.302Z,3.80
2022-09-29T22:57:07.891Z,3.80
2022-09-29T22:59:36.406Z,3.80
2022-09-29T23:02:05.444Z,4.00
2022-09-29T23:04:35.302Z,4.00
2022-09-29T23:07:04.493Z,3.80
2022-09-29T23:09:33.038Z,3.70
2022-09-29T23:12:02.102Z,3.70
2022-09-29T23:14:30.528Z,3.60
2022-09-29T23:17:06.865Z,3.50
2022-09-29T23:19:36.943Z,3.60
2022-09-29T23:22:05.656Z,3.50
2022-09-29T23:24:34.153Z,3.40
2022-09-29T23:27:02.798Z,3.50
2022-09-29T23:29:31.407Z,3.30
2022-09-29T23:32:00.116Z,3.30
2022-09-29T23:34:29.108Z,3.20
2022-09-29T23:36:59.658Z,3.30
2022-09-29T23:39:27.673Z,3.20
2022-09-29T23:41:56.572Z,3.20
2022-09-29T23:44:28.817Z,3.20
2022-09-29T23:46:57.975Z,3.30
2022-09-29T23:49:29.295Z,3.20
2022-09-29T23:52:02.381Z,3.20
2022-09-29T23:54:30.831Z,3.30
2022-09-29T23:56:59.887Z,3.30
2022-09-29T23:59:28.396Z,3.30
